sensor_id;sensor_type;location;lat;lon;timestamp;P1;durP1;ratioP1;P2;durP2;ratioP2
1224;SDS011;602;48.000;7.840;2024-01-11T00:01:54;8.27;;;5.60;;
1224;SDS011;602;48.000;7.840;2024-01-11T00:04:21;13.82;;;9.27;;
1224;SDS011;602;48.000;7.840;2024-01-11T00:06:49;16.33;;;8.90;;
1224;SDS011;602;48.000;7.840;2024-01-11T00:09:17;7.87;;;5.87;;
1224;SDS011;602;48.000;7.840;2024-01-11T00:11:44;13.90;;;8.60;;
1224;SDS011;602;48.000;7.840;2024-01-11T00:14:11;12.57;;;6.57;;
1224;SDS011;602;48.000;7.840;2024-01-11T00:16:38;12.30;;;8.02;;
1224;SDS011;602;48.000;7.840;2024-01-11T00:19:06;9.38;;;6.40;;
1224;SDS011;602;48.000;7.840;2024-01-11T00:21:33;8.03;;;6.10;;
1224;SDS011;602;48.000;7.840;2024-01-11T00:24:00;15.60;;;7.63;;
1224;SDS011;602;48.000;7.840;2024-01-11T00:26:27;6.90;;;4.90;;
1224;SDS011;602;48.000;7.840;2024-01-11T00:28:54;11.70;;;6.23;;
1224;SDS011;602;48.000;7.840;2024-01-11T00:31:21;21.10;;;9.10;;
1224;SDS011;602;48.000;7.840;2024-01-11T00:33:47;7.60;;;6.00;;
1224;SDS011;602;48.000;7.840;2024-01-11T00:36:18;9.90;;;7.70;;
1224;SDS011;602;48.000;7.840;2024-01-11T00:38:45;9.13;;;4.77;;
1224;SDS011;602;48.000;7.840;2024-01-11T00:41:12;8.13;;;5.37;;
1224;SDS011;602;48.000;7.840;2024-01-11T00:43:39;8.47;;;6.53;;
1224;SDS011;602;48.000;7.840;2024-01-11T00:46:07;9.93;;;5.63;;
1224;SDS011;602;48.000;7.840;2024-01-11T00:48:34;9.90;;;4.70;;
1224;SDS011;602;48.000;7.840;2024-01-11T00:51:01;12.80;;;6.77;;
1224;SDS011;602;48.000;7.840;2024-01-11T00:53:31;12.63;;;8.57;;
1224;SDS011;602;48.000;7.840;2024-01-11T00:55:58;14.80;;;7.65;;
1224;SDS011;602;48.000;7.840;2024-01-11T00:58:25;8.55;;;6.50;;
1224;SDS011;602;48.000;7.840;2024-01-11T01:00:52;13.57;;;6.57;;
1224;SDS011;602;48.000;7.840;2024-01-11T01:03:19;13.73;;;8.50;;
1224;SDS011;602;48.000;7.840;2024-01-11T01:05:46;10.13;;;7.25;;
1224;SDS011;602;48.000;7.840;2024-01-11T01:08:14;11.25;;;6.72;;
1224;SDS011;602;48.000;7.840;2024-01-11T01:10:42;9.90;;;6.28;;
1224;SDS011;602;48.000;7.840;2024-01-11T01:13:09;17.98;;;7.47;;
1224;SDS011;602;48.000;7.840;2024-01-11T01:15:36;11.02;;;7.25;;
1224;SDS011;602;48.000;7.840;2024-01-11T01:18:03;17.00;;;5.05;;
1224;SDS011;602;48.000;7.840;2024-01-11T01:20:33;21.63;;;10.20;;
1224;SDS011;602;48.000;7.840;2024-01-11T01:23:00;10.32;;;7.47;;
1224;SDS011;602;48.000;7.840;2024-01-11T01:25:27;10.15;;;8.05;;
1224;SDS011;602;48.000;7.840;2024-01-11T01:27:55;8.15;;;6.68;;
1224;SDS011;602;48.000;7.840;2024-01-11T01:30:24;20.30;;;8.48;;
1224;SDS011;602;48.000;7.840;2024-01-11T01:32:51;8.63;;;6.45;;
1224;SDS011;602;48.000;7.840;2024-01-11T01:35:17;9.18;;;6.47;;
1224;SDS011;602;48.000;7.840;2024-01-11T01:37:44;8.50;;;6.90;;
1224;SDS011;602;48.000;7.840;2024-01-11T01:40:11;12.20;;;7.85;;
1224;SDS011;602;48.000;7.840;2024-01-11T01:42:40;13.63;;;7.47;;
1224;SDS011;602;48.000;7.840;2024-01-11T01:45:10;10.88;;;5.43;;
1224;SDS011;602;48.000;7.840;2024-01-11T01:47:37;14.57;;;7.75;;
1224;SDS011;602;48.000;7.840;2024-01-11T01:50:06;9.80;;;6.35;;
1224;SDS011;602;48.000;7.840;2024-01-11T01:52:33;10.23;;;6.85;;
1224;SDS011;602;48.000;7.840;2024-01-11T01:55:02;13.48;;;8.52;;
1224;SDS011;602;48.000;7.840;2024-01-11T01:57:32;6.03;;;5.45;;
1224;SDS011;602;48.000;7.840;2024-01-11T02:00:00;10.95;;;7.07;;
1224;SDS011;602;48.000;7.840;2024-01-11T02:02:30;11.80;;;6.53;;
1224;SDS011;602;48.000;7.840;2024-01-11T02:04:59;6.85;;;5.80;;
1224;SDS011;602;48.000;7.840;2024-01-11T02:07:27;16.07;;;8.00;;
1224;SDS011;602;48.000;7.840;2024-01-11T02:09:54;10.02;;;6.35;;
1224;SDS011;602;48.000;7.840;2024-01-11T02:12:21;12.32;;;9.05;;
1224;SDS011;602;48.000;7.840;2024-01-11T02:14:50;7.60;;;5.43;;
1224;SDS011;602;48.000;7.840;2024-01-11T02:17:18;10.57;;;4.60;;
1224;SDS011;602;48.000;7.840;2024-01-11T02:19:47;14.13;;;7.77;;
1224;SDS011;602;48.000;7.840;2024-01-11T02:22:15;5.15;;;4.72;;
1224;SDS011;602;48.000;7.840;2024-01-11T02:24:48;8.48;;;5.63;;
1224;SDS011;602;48.000;7.840;2024-01-11T02:27:15;5.72;;;4.88;;
1224;SDS011;602;48.000;7.840;2024-01-11T02:29:42;17.77;;;7.50;;
1224;SDS011;602;48.000;7.840;2024-01-11T02:32:08;10.40;;;5.27;;
1224;SDS011;602;48.000;7.840;2024-01-11T02:34:35;14.83;;;6.60;;
1224;SDS011;602;48.000;7.840;2024-01-11T02:37:03;7.43;;;5.55;;
1224;SDS011;602;48.000;7.840;2024-01-11T02:39:31;7.47;;;6.77;;
1224;SDS011;602;48.000;7.840;2024-01-11T02:42:00;5.03;;;3.50;;
1224;SDS011;602;48.000;7.840;2024-01-11T02:44:27;7.43;;;5.20;;
1224;SDS011;602;48.000;7.840;2024-01-11T02:46:54;9.10;;;6.73;;
1224;SDS011;602;48.000;7.840;2024-01-11T02:49:21;17.48;;;10.00;;
1224;SDS011;602;48.000;7.840;2024-01-11T02:51:48;5.10;;;4.67;;
1224;SDS011;602;48.000;7.840;2024-01-11T02:54:14;9.10;;;6.37;;
1224;SDS011;602;48.000;7.840;2024-01-11T02:56:41;8.10;;;4.97;;
1224;SDS011;602;48.000;7.840;2024-01-11T02:59:09;8.47;;;7.63;;
1224;SDS011;602;48.000;7.840;2024-01-11T03:01:36;12.23;;;5.33;;
1224;SDS011;602;48.000;7.840;2024-01-11T03:04:03;5.80;;;5.20;;
1224;SDS011;602;48.000;7.840;2024-01-11T03:06:31;8.67;;;6.70;;
1224;SDS011;602;48.000;7.840;2024-01-11T03:08:58;4.90;;;4.43;;
1224;SDS011;602;48.000;7.840;2024-01-11T03:11:25;7.07;;;5.43;;
1224;SDS011;602;48.000;7.840;2024-01-11T03:13:52;10.50;;;4.90;;
1224;SDS011;602;48.000;7.840;2024-01-11T03:16:22;8.93;;;6.35;;
1224;SDS011;602;48.000;7.840;2024-01-11T03:18:48;13.63;;;7.27;;
1224;SDS011;602;48.000;7.840;2024-01-11T03:21:15;11.35;;;5.60;;
1224;SDS011;602;48.000;7.840;2024-01-11T03:23:43;12.33;;;4.83;;
1224;SDS011;602;48.000;7.840;2024-01-11T03:26:13;12.43;;;9.00;;
1224;SDS011;602;48.000;7.840;2024-01-11T03:28:40;7.17;;;4.87;;
1224;SDS011;602;48.000;7.840;2024-01-11T03:31:07;12.95;;;6.05;;
1224;SDS011;602;48.000;7.840;2024-01-11T03:33:36;11.85;;;7.03;;
1224;SDS011;602;48.000;7.840;2024-01-11T03:36:06;9.65;;;6.60;;
1224;SDS011;602;48.000;7.840;2024-01-11T03:38:33;13.60;;;6.90;;
1224;SDS011;602;48.000;7.840;2024-01-11T03:41:00;9.88;;;5.43;;
1224;SDS011;602;48.000;7.840;2024-01-11T03:43:27;9.60;;;7.65;;
1224;SDS011;602;48.000;7.840;2024-01-11T03:45:54;10.30;;;7.15;;
1224;SDS011;602;48.000;7.840;2024-01-11T03:48:21;8.38;;;6.93;;
1224;SDS011;602;48.000;7.840;2024-01-11T03:50:49;11.55;;;8.15;;
1224;SDS011;602;48.000;7.840;2024-01-11T03:53:16;8.88;;;6.60;;
1224;SDS011;602;48.000;7.840;2024-01-11T03:55:43;14.07;;;7.30;;
1224;SDS011;602;48.000;7.840;2024-01-11T03:58:10;9.77;;;7.70;;
1224;SDS011;602;48.000;7.840;2024-01-11T04:00:37;14.45;;;9.20;;
1224;SDS011;602;48.000;7.840;2024-01-11T04:03:06;13.40;;;5.93;;
1224;SDS011;602;48.000;7.840;2024-01-11T04:05:32;7.73;;;6.10;;
1224;SDS011;602;48.000;7.840;2024-01-11T04:08:02;6.60;;;4.97;;
1224;SDS011;602;48.000;7.840;2024-01-11T04:10:30;6.23;;;5.57;;
1224;SDS011;602;48.000;7.840;2024-01-11T04:12:57;10.63;;;6.68;;
1224;SDS011;602;48.000;7.840;2024-01-11T04:15:32;9.00;;;5.35;;
1224;SDS011;602;48.000;7.840;2024-01-11T04:18:17;6.40;;;4.30;;
1224;SDS011;602;48.000;7.840;2024-01-11T04:24:49;5.70;;;4.27;;
1224;SDS011;602;48.000;7.840;2024-01-11T04:27:21;6.32;;;4.55;;
1224;SDS011;602;48.000;7.840;2024-01-11T04:30:01;8.60;;;7.13;;
1224;SDS011;602;48.000;7.840;2024-01-11T04:32:34;7.28;;;6.57;;
1224;SDS011;602;48.000;7.840;2024-01-11T04:35:05;11.63;;;6.80;;
1224;SDS011;602;48.000;7.840;2024-01-11T04:37:36;4.25;;;3.85;;
1224;SDS011;602;48.000;7.840;2024-01-11T04:40:32;7.70;;;4.68;;
1224;SDS011;602;48.000;7.840;2024-01-11T04:43:01;8.23;;;5.13;;
1224;SDS011;602;48.000;7.840;2024-01-11T04:45:28;8.63;;;4.07;;
1224;SDS011;602;48.000;7.840;2024-01-11T04:48:16;5.28;;;4.15;;
1224;SDS011;602;48.000;7.840;2024-01-11T04:50:50;6.57;;;4.47;;
1224;SDS011;602;48.000;7.840;2024-01-11T04:53:23;10.38;;;5.47;;
1224;SDS011;602;48.000;7.840;2024-01-11T04:55:51;11.88;;;5.57;;
1224;SDS011;602;48.000;7.840;2024-01-11T04:58:18;7.40;;;6.38;;
1224;SDS011;602;48.000;7.840;2024-01-11T05:00:45;10.20;;;6.80;;
1224;SDS011;602;48.000;7.840;2024-01-11T05:03:12;9.75;;;7.60;;
1224;SDS011;602;48.000;7.840;2024-01-11T05:05:40;6.38;;;4.70;;
1224;SDS011;602;48.000;7.840;2024-01-11T05:08:07;3.65;;;3.45;;
1224;SDS011;602;48.000;7.840;2024-01-11T05:10:35;8.95;;;4.25;;
1224;SDS011;602;48.000;7.840;2024-01-11T05:13:03;11.02;;;6.60;;
1224;SDS011;602;48.000;7.840;2024-01-11T05:15:30;14.38;;;7.75;;
1224;SDS011;602;48.000;7.840;2024-01-11T05:17:58;10.63;;;4.68;;
1224;SDS011;602;48.000;7.840;2024-01-11T05:20:25;6.65;;;6.07;;
1224;SDS011;602;48.000;7.840;2024-01-11T05:22:51;6.00;;;5.50;;
1224;SDS011;602;48.000;7.840;2024-01-11T05:25:19;8.45;;;7.38;;
1224;SDS011;602;48.000;7.840;2024-01-11T05:27:46;9.63;;;7.30;;
1224;SDS011;602;48.000;7.840;2024-01-11T05:30:14;10.40;;;6.53;;
1224;SDS011;602;48.000;7.840;2024-01-11T05:32:41;11.40;;;7.32;;
1224;SDS011;602;48.000;7.840;2024-01-11T05:35:08;7.38;;;5.32;;
1224;SDS011;602;48.000;7.840;2024-01-11T05:37:35;10.30;;;6.65;;
1224;SDS011;602;48.000;7.840;2024-01-11T05:40:02;11.27;;;6.93;;
1224;SDS011;602;48.000;7.840;2024-01-11T05:42:29;7.15;;;3.45;;
1224;SDS011;602;48.000;7.840;2024-01-11T05:44:56;10.68;;;7.45;;
1224;SDS011;602;48.000;7.840;2024-01-11T05:47:24;10.48;;;3.75;;
1224;SDS011;602;48.000;7.840;2024-01-11T05:49:51;9.30;;;4.10;;
1224;SDS011;602;48.000;7.840;2024-01-11T05:52:18;6.63;;;4.15;;
1224;SDS011;602;48.000;7.840;2024-01-11T05:54:45;7.43;;;5.20;;
1224;SDS011;602;48.000;7.840;2024-01-11T05:57:12;10.97;;;6.80;;
1224;SDS011;602;48.000;7.840;2024-01-11T05:59:42;4.20;;;3.33;;
1224;SDS011;602;48.000;7.840;2024-01-11T06:02:10;11.85;;;4.95;;
1224;SDS011;602;48.000;7.840;2024-01-11T06:04:38;8.50;;;6.25;;
1224;SDS011;602;48.000;7.840;2024-01-11T06:07:05;7.10;;;5.68;;
1224;SDS011;602;48.000;7.840;2024-01-11T06:09:31;12.23;;;5.03;;
1224;SDS011;602;48.000;7.840;2024-01-11T06:11:58;8.27;;;5.20;;
1224;SDS011;602;48.000;7.840;2024-01-11T06:14:26;8.32;;;6.30;;
1224;SDS011;602;48.000;7.840;2024-01-11T06:16:53;7.88;;;4.68;;
1224;SDS011;602;48.000;7.840;2024-01-11T06:19:19;7.90;;;7.10;;
1224;SDS011;602;48.000;7.840;2024-01-11T06:21:48;11.82;;;5.93;;
1224;SDS011;602;48.000;7.840;2024-01-11T06:24:14;10.23;;;6.90;;
1224;SDS011;602;48.000;7.840;2024-01-11T06:26:41;13.20;;;5.03;;
1224;SDS011;602;48.000;7.840;2024-01-11T06:29:08;11.05;;;6.25;;
1224;SDS011;602;48.000;7.840;2024-01-11T06:31:35;10.65;;;5.57;;
1224;SDS011;602;48.000;7.840;2024-01-11T06:34:02;12.80;;;7.38;;
1224;SDS011;602;48.000;7.840;2024-01-11T06:36:29;4.18;;;3.60;;
1224;SDS011;602;48.000;7.840;2024-01-11T06:38:57;6.75;;;5.22;;
1224;SDS011;602;48.000;7.840;2024-01-11T06:41:24;13.00;;;9.38;;
1224;SDS011;602;48.000;7.840;2024-01-11T06:43:51;14.63;;;8.25;;
1224;SDS011;602;48.000;7.840;2024-01-11T06:46:19;14.88;;;5.53;;
1224;SDS011;602;48.000;7.840;2024-01-11T06:48:46;5.85;;;5.18;;
1224;SDS011;602;48.000;7.840;2024-01-11T06:51:14;10.02;;;5.68;;
1224;SDS011;602;48.000;7.840;2024-01-11T06:53:41;9.00;;;5.32;;
1224;SDS011;602;48.000;7.840;2024-01-11T06:56:16;5.45;;;4.85;;
1224;SDS011;602;48.000;7.840;2024-01-11T06:58:45;44.03;;;6.07;;
1224;SDS011;602;48.000;7.840;2024-01-11T07:01:12;12.40;;;8.45;;
1224;SDS011;602;48.000;7.840;2024-01-11T07:03:39;7.95;;;5.55;;
1224;SDS011;602;48.000;7.840;2024-01-11T07:06:06;7.35;;;4.32;;
1224;SDS011;602;48.000;7.840;2024-01-11T07:08:34;11.00;;;6.90;;
1224;SDS011;602;48.000;7.840;2024-01-11T07:11:01;6.43;;;3.55;;
1224;SDS011;602;48.000;7.840;2024-01-11T07:13:29;6.68;;;4.53;;
1224;SDS011;602;48.000;7.840;2024-01-11T07:15:57;6.43;;;4.22;;
1224;SDS011;602;48.000;7.840;2024-01-11T07:18:24;5.57;;;3.30;;
1224;SDS011;602;48.000;7.840;2024-01-11T07:20:50;7.07;;;6.25;;
1224;SDS011;602;48.000;7.840;2024-01-11T07:23:18;8.27;;;5.35;;
1224;SDS011;602;48.000;7.840;2024-01-11T07:25:45;8.40;;;4.72;;
1224;SDS011;602;48.000;7.840;2024-01-11T07:28:12;8.82;;;5.40;;
1224;SDS011;602;48.000;7.840;2024-01-11T07:30:40;11.52;;;6.72;;
1224;SDS011;602;48.000;7.840;2024-01-11T07:33:07;10.27;;;6.00;;
1224;SDS011;602;48.000;7.840;2024-01-11T07:35:34;12.48;;;5.53;;
1224;SDS011;602;48.000;7.840;2024-01-11T07:38:01;11.57;;;4.05;;
1224;SDS011;602;48.000;7.840;2024-01-11T07:40:29;8.35;;;3.72;;
1224;SDS011;602;48.000;7.840;2024-01-11T07:42:56;8.18;;;7.35;;
1224;SDS011;602;48.000;7.840;2024-01-11T07:45:23;10.93;;;7.13;;
1224;SDS011;602;48.000;7.840;2024-01-11T07:47:51;4.63;;;4.22;;
1224;SDS011;602;48.000;7.840;2024-01-11T07:50:18;8.63;;;5.97;;
1224;SDS011;602;48.000;7.840;2024-01-11T07:52:45;9.52;;;6.22;;
1224;SDS011;602;48.000;7.840;2024-01-11T07:55:12;4.88;;;4.35;;
1224;SDS011;602;48.000;7.840;2024-01-11T07:57:39;5.22;;;4.68;;
1224;SDS011;602;48.000;7.840;2024-01-11T08:00:07;14.32;;;7.45;;
1224;SDS011;602;48.000;7.840;2024-01-11T08:02:45;5.45;;;4.28;;
1224;SDS011;602;48.000;7.840;2024-01-11T08:05:27;9.50;;;6.93;;
1224;SDS011;602;48.000;7.840;2024-01-11T08:07:54;15.13;;;6.78;;
1224;SDS011;602;48.000;7.840;2024-01-11T08:10:21;7.75;;;6.25;;
1224;SDS011;602;48.000;7.840;2024-01-11T08:12:48;7.32;;;4.80;;
1224;SDS011;602;48.000;7.840;2024-01-11T08:15:15;8.93;;;6.28;;
1224;SDS011;602;48.000;7.840;2024-01-11T08:17:43;13.70;;;4.65;;
1224;SDS011;602;48.000;7.840;2024-01-11T08:20:11;5.32;;;4.75;;
1224;SDS011;602;48.000;7.840;2024-01-11T08:22:40;9.43;;;6.68;;
1224;SDS011;602;48.000;7.840;2024-01-11T08:25:08;9.40;;;5.47;;
1224;SDS011;602;48.000;7.840;2024-01-11T08:27:35;14.20;;;7.57;;
1224;SDS011;602;48.000;7.840;2024-01-11T08:30:03;11.50;;;5.97;;
1224;SDS011;602;48.000;7.840;2024-01-11T08:32:31;5.50;;;3.88;;
1224;SDS011;602;48.000;7.840;2024-01-11T08:35:04;7.55;;;5.45;;
1224;SDS011;602;48.000;7.840;2024-01-11T08:37:31;7.80;;;5.35;;
1224;SDS011;602;48.000;7.840;2024-01-11T08:40:00;7.25;;;5.57;;
1224;SDS011;602;48.000;7.840;2024-01-11T08:42:27;10.88;;;6.28;;
1224;SDS011;602;48.000;7.840;2024-01-11T08:44:54;13.32;;;7.07;;
1224;SDS011;602;48.000;7.840;2024-01-11T08:47:23;17.92;;;6.82;;
1224;SDS011;602;48.000;7.840;2024-01-11T08:49:49;7.68;;;6.90;;
1224;SDS011;602;48.000;7.840;2024-01-11T08:52:16;9.43;;;6.22;;
1224;SDS011;602;48.000;7.840;2024-01-11T08:54:43;14.82;;;6.75;;
1224;SDS011;602;48.000;7.840;2024-01-11T08:57:11;10.68;;;5.30;;
1224;SDS011;602;48.000;7.840;2024-01-11T08:59:39;12.32;;;6.15;;
1224;SDS011;602;48.000;7.840;2024-01-11T09:02:06;7.25;;;6.40;;
1224;SDS011;602;48.000;7.840;2024-01-11T09:04:33;11.95;;;7.93;;
1224;SDS011;602;48.000;7.840;2024-01-11T09:07:00;9.80;;;7.82;;
1224;SDS011;602;48.000;7.840;2024-01-11T09:09:27;9.30;;;7.30;;
1224;SDS011;602;48.000;7.840;2024-01-11T09:11:54;8.68;;;5.18;;
1224;SDS011;602;48.000;7.840;2024-01-11T09:14:22;6.15;;;5.57;;
1224;SDS011;602;48.000;7.840;2024-01-11T09:16:49;9.00;;;8.07;;
1224;SDS011;602;48.000;7.840;2024-01-11T09:19:16;25.60;;;8.32;;
1224;SDS011;602;48.000;7.840;2024-01-11T09:21:43;13.23;;;7.97;;
1224;SDS011;602;48.000;7.840;2024-01-11T09:24:10;9.25;;;6.05;;
1224;SDS011;602;48.000;7.840;2024-01-11T09:26:37;9.07;;;5.63;;
1224;SDS011;602;48.000;7.840;2024-01-11T09:29:04;10.03;;;7.00;;
1224;SDS011;602;48.000;7.840;2024-01-11T09:31:32;8.93;;;8.23;;
1224;SDS011;602;48.000;7.840;2024-01-11T09:33:59;11.43;;;7.33;;
1224;SDS011;602;48.000;7.840;2024-01-11T09:36:29;9.37;;;5.90;;
1224;SDS011;602;48.000;7.840;2024-01-11T09:38:56;10.40;;;7.70;;
1224;SDS011;602;48.000;7.840;2024-01-11T09:41:23;9.03;;;4.63;;
1224;SDS011;602;48.000;7.840;2024-01-11T09:43:52;13.77;;;7.07;;
1224;SDS011;602;48.000;7.840;2024-01-11T09:46:24;10.80;;;7.53;;
1224;SDS011;602;48.000;7.840;2024-01-11T09:48:53;23.47;;;9.13;;
1224;SDS011;602;48.000;7.840;2024-01-11T09:51:21;14.13;;;9.23;;
1224;SDS011;602;48.000;7.840;2024-01-11T09:53:49;9.80;;;8.40;;
1224;SDS011;602;48.000;7.840;2024-01-11T09:56:17;21.83;;;7.53;;
1224;SDS011;602;48.000;7.840;2024-01-11T09:58:45;10.35;;;7.70;;
1224;SDS011;602;48.000;7.840;2024-01-11T10:01:15;9.70;;;8.10;;
1224;SDS011;602;48.000;7.840;2024-01-11T10:03:43;14.70;;;8.43;;
1224;SDS011;602;48.000;7.840;2024-01-11T10:06:12;10.83;;;7.53;;
1224;SDS011;602;48.000;7.840;2024-01-11T10:08:41;13.73;;;6.37;;
1224;SDS011;602;48.000;7.840;2024-01-11T10:11:08;15.70;;;7.57;;
1224;SDS011;602;48.000;7.840;2024-01-11T10:13:35;19.83;;;9.63;;
1224;SDS011;602;48.000;7.840;2024-01-11T10:16:04;10.60;;;7.33;;
1224;SDS011;602;48.000;7.840;2024-01-11T10:18:33;9.87;;;8.30;;
1224;SDS011;602;48.000;7.840;2024-01-11T10:21:00;13.40;;;8.80;;
1224;SDS011;602;48.000;7.840;2024-01-11T10:23:29;20.23;;;7.00;;
1224;SDS011;602;48.000;7.840;2024-01-11T10:25:56;16.00;;;7.97;;
1224;SDS011;602;48.000;7.840;2024-01-11T10:28:23;8.53;;;7.63;;
1224;SDS011;602;48.000;7.840;2024-01-11T10:30:51;16.10;;;9.13;;
1224;SDS011;602;48.000;7.840;2024-01-11T10:33:19;15.97;;;9.30;;
1224;SDS011;602;48.000;7.840;2024-01-11T10:35:47;13.93;;;9.00;;
1224;SDS011;602;48.000;7.840;2024-01-11T10:38:15;12.03;;;10.40;;
1224;SDS011;602;48.000;7.840;2024-01-11T10:40:44;17.13;;;9.00;;
1224;SDS011;602;48.000;7.840;2024-01-11T10:43:11;14.00;;;10.17;;
1224;SDS011;602;48.000;7.840;2024-01-11T10:45:40;12.20;;;10.07;;
1224;SDS011;602;48.000;7.840;2024-01-11T10:48:10;15.70;;;9.23;;
1224;SDS011;602;48.000;7.840;2024-01-11T10:50:41;14.10;;;9.10;;
1224;SDS011;602;48.000;7.840;2024-01-11T10:53:12;15.10;;;8.37;;
1224;SDS011;602;48.000;7.840;2024-01-11T10:55:56;19.20;;;12.60;;
1224;SDS011;602;48.000;7.840;2024-01-11T10:58:25;18.00;;;7.97;;
1224;SDS011;602;48.000;7.840;2024-01-11T11:00:53;12.57;;;9.33;;
1224;SDS011;602;48.000;7.840;2024-01-11T11:03:21;9.40;;;8.10;;
1224;SDS011;602;48.000;7.840;2024-01-11T11:05:50;17.23;;;9.30;;
1224;SDS011;602;48.000;7.840;2024-01-11T11:08:22;13.10;;;8.67;;
1224;SDS011;602;48.000;7.840;2024-01-11T11:10:54;15.40;;;9.20;;
1224;SDS011;602;48.000;7.840;2024-01-11T11:13:23;17.40;;;10.60;;
1224;SDS011;602;48.000;7.840;2024-01-11T11:15:50;11.30;;;7.67;;
1224;SDS011;602;48.000;7.840;2024-01-11T11:18:18;18.43;;;11.83;;
1224;SDS011;602;48.000;7.840;2024-01-11T11:20:47;19.27;;;9.80;;
1224;SDS011;602;48.000;7.840;2024-01-11T11:23:45;14.97;;;10.50;;
1224;SDS011;602;48.000;7.840;2024-01-11T11:26:25;25.37;;;12.27;;
1224;SDS011;602;48.000;7.840;2024-01-11T11:28:54;22.50;;;10.73;;
1224;SDS011;602;48.000;7.840;2024-01-11T11:31:35;19.70;;;11.13;;
1224;SDS011;602;48.000;7.840;2024-01-11T11:34:21;18.63;;;12.77;;
1224;SDS011;602;48.000;7.840;2024-01-11T11:37:22;19.40;;;11.27;;
1224;SDS011;602;48.000;7.840;2024-01-11T11:40:05;22.80;;;11.10;;
1224;SDS011;602;48.000;7.840;2024-01-11T11:42:37;21.93;;;12.00;;
1224;SDS011;602;48.000;7.840;2024-01-11T11:45:06;17.60;;;11.97;;
1224;SDS011;602;48.000;7.840;2024-01-11T11:47:36;16.77;;;10.90;;
1224;SDS011;602;48.000;7.840;2024-01-11T11:50:04;14.17;;;11.17;;
1224;SDS011;602;48.000;7.840;2024-01-11T11:52:32;20.20;;;11.57;;
1224;SDS011;602;48.000;7.840;2024-01-11T11:55:00;21.57;;;12.33;;
1224;SDS011;602;48.000;7.840;2024-01-11T11:57:28;16.87;;;10.67;;
1224;SDS011;602;48.000;7.840;2024-01-11T11:59:57;17.27;;;11.07;;
1224;SDS011;602;48.000;7.840;2024-01-11T12:02:24;23.30;;;12.73;;
1224;SDS011;602;48.000;7.840;2024-01-11T12:04:52;13.17;;;9.50;;
1224;SDS011;602;48.000;7.840;2024-01-11T12:07:19;21.40;;;12.17;;
1224;SDS011;602;48.000;7.840;2024-01-11T12:09:48;26.37;;;12.30;;
1224;SDS011;602;48.000;7.840;2024-01-11T12:12:15;18.50;;;12.43;;
1224;SDS011;602;48.000;7.840;2024-01-11T12:14:45;14.23;;;9.10;;
1224;SDS011;602;48.000;7.840;2024-01-11T12:17:14;17.10;;;11.63;;
1224;SDS011;602;48.000;7.840;2024-01-11T12:19:41;17.87;;;10.93;;
1224;SDS011;602;48.000;7.840;2024-01-11T12:22:08;17.30;;;9.13;;
1224;SDS011;602;48.000;7.840;2024-01-11T12:24:35;19.60;;;10.97;;
1224;SDS011;602;48.000;7.840;2024-01-11T12:27:02;20.13;;;12.17;;
1224;SDS011;602;48.000;7.840;2024-01-11T12:29:29;16.53;;;8.20;;
1224;SDS011;602;48.000;7.840;2024-01-11T12:31:56;18.50;;;11.20;;
1224;SDS011;602;48.000;7.840;2024-01-11T12:34:26;14.93;;;10.10;;
1224;SDS011;602;48.000;7.840;2024-01-11T12:36:54;19.70;;;12.83;;
1224;SDS011;602;48.000;7.840;2024-01-11T12:39:25;22.83;;;15.17;;
1224;SDS011;602;48.000;7.840;2024-01-11T12:41:54;17.67;;;9.80;;
1224;SDS011;602;48.000;7.840;2024-01-11T12:44:22;18.17;;;13.37;;
1224;SDS011;602;48.000;7.840;2024-01-11T12:46:50;16.00;;;9.03;;
1224;SDS011;602;48.000;7.840;2024-01-11T12:49:18;15.63;;;10.97;;
1224;SDS011;602;48.000;7.840;2024-01-11T12:51:46;15.23;;;8.13;;
1224;SDS011;602;48.000;7.840;2024-01-11T12:54:15;19.70;;;11.60;;
1224;SDS011;602;48.000;7.840;2024-01-11T12:56:44;16.37;;;9.10;;
1224;SDS011;602;48.000;7.840;2024-01-11T12:59:11;21.93;;;11.03;;
1224;SDS011;602;48.000;7.840;2024-01-11T13:01:41;20.53;;;13.33;;
1224;SDS011;602;48.000;7.840;2024-01-11T13:04:09;18.77;;;12.00;;
1224;SDS011;602;48.000;7.840;2024-01-11T13:06:36;18.80;;;10.07;;
1224;SDS011;602;48.000;7.840;2024-01-11T13:09:04;20.23;;;14.20;;
1224;SDS011;602;48.000;7.840;2024-01-11T13:11:33;21.30;;;13.70;;
1224;SDS011;602;48.000;7.840;2024-01-11T13:14:03;17.17;;;12.07;;
1224;SDS011;602;48.000;7.840;2024-01-11T13:16:33;27.80;;;13.83;;
1224;SDS011;602;48.000;7.840;2024-01-11T13:19:00;22.30;;;13.60;;
1224;SDS011;602;48.000;7.840;2024-01-11T13:21:27;16.60;;;10.60;;
1224;SDS011;602;48.000;7.840;2024-01-11T13:23:54;13.10;;;9.70;;
1224;SDS011;602;48.000;7.840;2024-01-11T13:26:23;13.70;;;9.60;;
1224;SDS011;602;48.000;7.840;2024-01-11T13:28:50;23.53;;;12.10;;
1224;SDS011;602;48.000;7.840;2024-01-11T13:31:18;22.70;;;11.50;;
1224;SDS011;602;48.000;7.840;2024-01-11T13:33:45;20.20;;;12.00;;
1224;SDS011;602;48.000;7.840;2024-01-11T13:36:14;20.70;;;9.97;;
1224;SDS011;602;48.000;7.840;2024-01-11T13:38:41;21.00;;;11.50;;
1224;SDS011;602;48.000;7.840;2024-01-11T13:41:08;15.97;;;11.70;;
1224;SDS011;602;48.000;7.840;2024-01-11T13:43:36;18.70;;;9.57;;
1224;SDS011;602;48.000;7.840;2024-01-11T13:46:03;26.10;;;11.67;;
1224;SDS011;602;48.000;7.840;2024-01-11T13:48:30;17.47;;;11.37;;
1224;SDS011;602;48.000;7.840;2024-01-11T13:50:57;15.73;;;9.20;;
1224;SDS011;602;48.000;7.840;2024-01-11T13:53:24;14.47;;;8.63;;
1224;SDS011;602;48.000;7.840;2024-01-11T13:55:51;19.20;;;12.37;;
1224;SDS011;602;48.000;7.840;2024-01-11T13:58:18;18.90;;;10.47;;
1224;SDS011;602;48.000;7.840;2024-01-11T14:00:47;14.50;;;8.90;;
1224;SDS011;602;48.000;7.840;2024-01-11T14:03:14;17.00;;;10.93;;
1224;SDS011;602;48.000;7.840;2024-01-11T14:05:42;15.50;;;11.73;;
1224;SDS011;602;48.000;7.840;2024-01-11T14:08:08;15.97;;;10.17;;
1224;SDS011;602;48.000;7.840;2024-01-11T14:10:35;22.60;;;11.53;;
1224;SDS011;602;48.000;7.840;2024-01-11T14:13:03;18.20;;;10.47;;
1224;SDS011;602;48.000;7.840;2024-01-11T14:15:30;14.40;;;10.27;;
1224;SDS011;602;48.000;7.840;2024-01-11T14:17:58;23.53;;;14.00;;
1224;SDS011;602;48.000;7.840;2024-01-11T14:20:25;16.27;;;10.10;;
1224;SDS011;602;48.000;7.840;2024-01-11T14:22:52;22.60;;;13.60;;
1224;SDS011;602;48.000;7.840;2024-01-11T14:25:20;23.50;;;10.87;;
1224;SDS011;602;48.000;7.840;2024-01-11T14:27:48;21.53;;;10.97;;
1224;SDS011;602;48.000;7.840;2024-01-11T14:30:15;14.00;;;9.77;;
1224;SDS011;602;48.000;7.840;2024-01-11T14:32:42;13.90;;;10.90;;
1224;SDS011;602;48.000;7.840;2024-01-11T14:35:11;26.73;;;12.10;;
1224;SDS011;602;48.000;7.840;2024-01-11T14:37:38;22.57;;;10.57;;
1224;SDS011;602;48.000;7.840;2024-01-11T14:40:08;15.60;;;10.90;;
1224;SDS011;602;48.000;7.840;2024-01-11T14:42:36;22.23;;;11.00;;
1224;SDS011;602;48.000;7.840;2024-01-11T14:45:03;11.40;;;8.47;;
1224;SDS011;602;48.000;7.840;2024-01-11T14:47:31;18.93;;;11.27;;
1224;SDS011;602;48.000;7.840;2024-01-11T14:49:59;21.23;;;11.87;;
1224;SDS011;602;48.000;7.840;2024-01-11T14:52:27;18.60;;;10.20;;
1224;SDS011;602;48.000;7.840;2024-01-11T14:54:55;18.37;;;11.67;;
1224;SDS011;602;48.000;7.840;2024-01-11T14:57:22;22.33;;;12.27;;
1224;SDS011;602;48.000;7.840;2024-01-11T14:59:49;23.30;;;12.50;;
1224;SDS011;602;48.000;7.840;2024-01-11T15:02:16;13.77;;;10.20;;
1224;SDS011;602;48.000;7.840;2024-01-11T15:04:43;13.03;;;10.10;;
1224;SDS011;602;48.000;7.840;2024-01-11T15:07:10;17.40;;;11.57;;
1224;SDS011;602;48.000;7.840;2024-01-11T15:09:39;17.93;;;11.20;;
1224;SDS011;602;48.000;7.840;2024-01-11T15:12:07;18.73;;;14.10;;
1224;SDS011;602;48.000;7.840;2024-01-11T15:14:34;28.90;;;13.60;;
1224;SDS011;602;48.000;7.840;2024-01-11T15:17:02;23.17;;;12.23;;
1224;SDS011;602;48.000;7.840;2024-01-11T15:19:29;28.40;;;12.37;;
1224;SDS011;602;48.000;7.840;2024-01-11T15:21:56;18.10;;;10.53;;
1224;SDS011;602;48.000;7.840;2024-01-11T15:24:24;17.87;;;11.40;;
1224;SDS011;602;48.000;7.840;2024-01-11T15:26:54;21.90;;;13.07;;
1224;SDS011;602;48.000;7.840;2024-01-11T15:29:21;19.23;;;11.90;;